Observation data for Post on 10/14/2019      Previous  Date       Current Mesonet Observations  Soil Data  Daily Summary Page  Observations in Plain Language
KPT1 140500Z 21008KT 22/04 A2996 RMK A01 T02180039  RH  032%=      5-min Rain = 0
KPT1 140505Z 21009G14KT 22/04 A2996 RMK A01 T02180040  RH  032%=      5-min Rain = 0
KPT1 140510Z 22008KT 22/04 A2996 RMK A01 T02170040  RH  032%=      5-min Rain = 0
KPT1 140515Z 22009KT 22/04 A2996 RMK A01 T02150040  RH  032%=      5-min Rain = 0
KPT1 140520Z 22009KT 21/04 A2996 RMK A01 T02140041  RH  033%=      5-min Rain = 0
KPT1 140525Z 22008KT 21/04 A2996 RMK A01 T02140041  RH  033%=      5-min Rain = 0
KPT1 140530Z 22008KT 21/04 A2996 RMK A01 T02140041  RH  033%=      5-min Rain = 0
KPT1 140535Z 22007KT 21/04 A2996 RMK A01 T02140042  RH  033%=      5-min Rain = 0
KPT1 140540Z 22008KT 21/04 A2996 RMK A01 T02130042  RH  033%=      5-min Rain = 0
KPT1 140545Z 22008KT 21/04 A2996 RMK A01 T02120042  RH  033%=      5-min Rain = 0
KPT1 140550Z 22008KT 21/04 A2996 RMK A01 T02120042  RH  033%=      5-min Rain = 0
KPT1 140555Z 22008KT 21/04 A2996 RMK A01 T02140043  RH  033%=      5-min Rain = 0
KPT1 140600Z 22009KT 22/04 A2995 RMK A01 T02150043  RH  033%=      5-min Rain = 0
KPT1 140605Z 22009KT 22/04 A2995 RMK A01 T02150044  RH  033%=      5-min Rain = 0
KPT1 140610Z 23009G15KT 22/04 A2995 RMK A01 T02170044  RH  033%=      5-min Rain = 0
KPT1 140615Z 23009KT 22/05 A2995 RMK A01 T02160045  RH  033%=      5-min Rain = 0
KPT1 140620Z 23009KT 22/05 A2995 RMK A01 T02170045  RH  033%=      5-min Rain = 0
KPT1 140625Z 23008KT 22/05 A2995 RMK A01 T02160045  RH  033%=      5-min Rain = 0
KPT1 140630Z 23009KT 22/05 A2995 RMK A01 T02160046  RH  033%=      5-min Rain = 0
KPT1 140635Z 23009G15KT 22/05 A2995 RMK A01 T02170046  RH  033%=      5-min Rain = 0
KPT1 140640Z 23009KT 22/05 A2995 RMK A01 T02180046  RH  033%=      5-min Rain = 0
KPT1 140645Z 23010KT 22/05 A2995 RMK A01 T02170046  RH  033%=      5-min Rain = 0
KPT1 140650Z 23010KT 22/05 A2995 RMK A01 T02170046  RH  033%=      5-min Rain = 0
KPT1 140655Z 23010KT 22/05 A2995 RMK A01 T02150046  RH  034%=      5-min Rain = 0
KPT1 140700Z 23010KT 22/05 A2995 RMK A01 T02150046  RH  034%=      5-min Rain = 0
KPT1 140705Z 23009KT 21/05 A2995 RMK A01 T02140047  RH  034%=      5-min Rain = 0
KPT1 140710Z 23009KT 21/05 A2995 RMK A01 T02130047  RH  034%=      5-min Rain = 0
KPT1 140715Z 23009KT 21/05 A2995 RMK A01 T02120047  RH  035%=      5-min Rain = 0
KPT1 140720Z 23008KT 21/05 A2995 RMK A01 T02120048  RH  035%=      5-min Rain = 0
KPT1 140725Z 23008KT 21/05 A2995 RMK A01 T02100048  RH  035%=      5-min Rain = 0
KPT1 140730Z 23008KT 21/05 A2995 RMK A01 T02080048  RH  036%=      5-min Rain = 0
KPT1 140735Z 23008KT 21/05 A2995 RMK A01 T02060049  RH  036%=      5-min Rain = 0
KPT1 140740Z 23008KT 21/05 A2995 RMK A01 T02050049  RH  037%=      5-min Rain = 0
KPT1 140745Z 23007KT 21/05 A2995 RMK A01 T02050049  RH  037%=      5-min Rain = 0
KPT1 140750Z 23007KT 20/05 A2996 RMK A01 T02030049  RH  037%=      5-min Rain = 0
KPT1 140755Z 21006KT 20/05 A2996 RMK A01 T02020050  RH  037%=      5-min Rain = 0
KPT1 140800Z 21005KT 20/05 A2996 RMK A01 T02000050  RH  038%=      5-min Rain = 0
KPT1 140805Z 19004KT 20/05 A2996 RMK A01 T01960051  RH  039%=      5-min Rain = 0
KPT1 140810Z 15004KT 19/05 A2995 RMK A01 T01850048  RH  041%=      5-min Rain = 0
KPT1 140815Z 17004KT 18/05 A2995 RMK A01 T01780049  RH  044%=      5-min Rain = 0
KPT1 140820Z 18004KT 18/05 A2995 RMK A01 T01780051  RH  044%=      5-min Rain = 0
KPT1 140825Z 19004KT 18/05 A2995 RMK A01 T01790052  RH  044%=      5-min Rain = 0
KPT1 140830Z 19004KT 18/05 A2995 RMK A01 T01820052  RH  044%=      5-min Rain = 0
KPT1 140835Z 19003KT 18/05 A2995 RMK A01 T01830052  RH  043%=      5-min Rain = 0
KPT1 140840Z 20003KT 18/05 A2994 RMK A01 T01830053  RH  043%=      5-min Rain = 0
KPT1 140845Z 20003KT 18/05 A2994 RMK A01 T01830053  RH  043%=      5-min Rain = 0
KPT1 140850Z 19004KT 18/05 A2994 RMK A01 T01830053  RH  043%=      5-min Rain = 0
KPT1 140855Z 20004KT 18/05 A2994 RMK A01 T01820053  RH  043%=      5-min Rain = 0
KPT1 140900Z 21004KT 18/05 A2994 RMK A01 T01820053  RH  044%=      5-min Rain = 0
KPT1 140905Z 20005KT 18/05 A2994 RMK A01 T01820054  RH  044%=      5-min Rain = 0
KPT1 140910Z 20005KT 18/06 A2994 RMK A01 T01820055  RH  044%=      5-min Rain = 0
KPT1 140915Z 21005KT 18/06 A2994 RMK A01 T01820056  RH  044%=      5-min Rain = 0
KPT1 140920Z 22005KT 18/06 A2994 RMK A01 T01810056  RH  045%=      5-min Rain = 0
KPT1 140925Z 22004KT 18/06 A2994 RMK A01 T01810057  RH  045%=      5-min Rain = 0
KPT1 140930Z 22003KT 18/06 A2994 RMK A01 T01800057  RH  045%=      5-min Rain = 0
KPT1 140935Z 19003KT 18/06 A2994 RMK A01 T01800057  RH  046%=      5-min Rain = 0
KPT1 140940Z 20003KT 18/06 A2994 RMK A01 T01780058  RH  046%=      5-min Rain = 0
KPT1 140945Z 21003KT 18/06 A2994 RMK A01 T01790058  RH  046%=      5-min Rain = 0
KPT1 140950Z 20003KT 18/06 A2994 RMK A01 T01800059  RH  046%=      5-min Rain = 0
KPT1 140955Z 18000KT 18/06 A2994 RMK A01 T01790059  RH  046%=      5-min Rain = 0
KPT1 141000Z 06002KT 17/06 A2994 RMK A01 T01720058  RH  048%=      5-min Rain = 0
KPT1 141005Z 06003KT 16/06 A2994 RMK A01 T01610056  RH  051%=      5-min Rain = 0
KPT1 141010Z 09002KT 16/06 A2994 RMK A01 T01610056  RH  051%=      5-min Rain = 0
KPT1 141015Z 09001KT 16/06 A2994 RMK A01 T01630058  RH  051%=      5-min Rain = 0
KPT1 141020Z 20002KT 17/06 A2994 RMK A01 T01690060  RH  050%=      5-min Rain = 0
KPT1 141025Z 22004KT 18/06 A2994 RMK A01 T01810061  RH  046%=      5-min Rain = 0
KPT1 141030Z 21003KT 19/06 A2994 RMK A01 T01850060  RH  045%=      5-min Rain = 0
KPT1 141035Z 20003KT 18/06 A2994 RMK A01 T01810062  RH  047%=      5-min Rain = 0
KPT1 141040Z 22002KT 18/06 A2994 RMK A01 T01800062  RH  047%=      5-min Rain = 0
KPT1 141045Z 23002KT 18/06 A2994 RMK A01 T01810062  RH  047%=      5-min Rain = 0
KPT1 141050Z 01001KT 17/06 A2994 RMK A01 T01740060  RH  048%=      5-min Rain = 0
KPT1 141055Z 03003KT 17/06 A2994 RMK A01 T01690059  RH  049%=      5-min Rain = 0
KPT1 141100Z 01003KT 17/06 A2995 RMK A01 T01690058  RH  049%=      5-min Rain = 0
KPT1 141105Z 28002KT 17/06 A2995 RMK A01 T01720061  RH  049%=      5-min Rain = 0
KPT1 141110Z 24002KT 18/06 A2995 RMK A01 T01750061  RH  048%=      5-min Rain = 0
KPT1 141115Z 15001KT 17/06 A2995 RMK A01 T01660060  RH  051%=      5-min Rain = 0
KPT1 141120Z 07002KT 17/06 A2996 RMK A01 T01650057  RH  050%=      5-min Rain = 0
KPT1 141125Z 08003KT 17/06 A2996 RMK A01 T01660057  RH  050%=      5-min Rain = 0
KPT1 141130Z 11002KT 17/06 A2996 RMK A01 T01670060  RH  050%=      5-min Rain = 0
KPT1 141135Z 12001KT 17/06 A2996 RMK A01 T01690060  RH  050%=      5-min Rain = 0
KPT1 141140Z 13001KT 17/06 A2997 RMK A01 T01730061  RH  049%=      5-min Rain = 0
KPT1 141145Z 16003KT 17/06 A2997 RMK A01 T01720061  RH  049%=      5-min Rain = 0
KPT1 141150Z 17003KT 17/06 A2997 RMK A01 T01680060  RH  050%=      5-min Rain = 0
KPT1 141155Z 17002KT 17/06 A2997 RMK A01 T01670060  RH  050%=      5-min Rain = 0
KPT1 141200Z 19000KT 17/06 A2997 RMK A01 T01660060  RH  051%=      5-min Rain = 0
KPT1 141205Z 17000KT 16/06 A2997 RMK A01 T01600061  RH  053%=      5-min Rain = 0
KPT1 141210Z 17002KT 16/06 A2997 RMK A01 T01620060  RH  052%=      5-min Rain = 0
KPT1 141215Z 19004KT 16/06 A2996 RMK A01 T01610061  RH  053%=      5-min Rain = 0
KPT1 141220Z 19005KT 16/06 A2996 RMK A01 T01620061  RH  053%=      5-min Rain = 0
KPT1 141225Z 19006KT 16/06 A2996 RMK A01 T01630061  RH  052%=      5-min Rain = 0
KPT1 141230Z 19005KT 17/06 A2997 RMK A01 T01660061  RH  051%=      5-min Rain = 0
KPT1 141235Z 18003KT 17/06 A2997 RMK A01 T01660061  RH  051%=      5-min Rain = 0
KPT1 141240Z 16001KT 17/06 A2997 RMK A01 T01650061  RH  052%=      5-min Rain = 0
KPT1 141245Z 26000KT 17/06 A2997 RMK A01 T01650061  RH  051%=      5-min Rain = 0
KPT1 141250Z 23001KT 17/06 A2997 RMK A01 T01660060  RH  051%=      5-min Rain = 0
KPT1 141255Z 22003KT 17/06 A2997 RMK A01 T01680060  RH  050%=      5-min Rain = 0
KPT1 141300Z 21005KT 17/06 A2997 RMK A01 T01650062  RH  052%=      5-min Rain = 0
KPT1 141305Z 20004KT 17/06 A2997 RMK A01 T01660062  RH  051%=      5-min Rain = 0
KPT1 141310Z 19002KT 17/06 A2997 RMK A01 T01660062  RH  052%=      5-min Rain = 0
KPT1 141315Z 24000KT 16/07 A2997 RMK A01 T01600065  RH  055%=      5-min Rain = 0
KPT1 141320Z 19003KT 16/07 A2997 RMK A01 T01600065  RH  054%=      5-min Rain = 0
KPT1 141325Z 20004KT 17/06 A2997 RMK A01 T01670064  RH  052%=      5-min Rain = 0
KPT1 141330Z 20004KT 17/06 A2998 RMK A01 T01710064  RH  050%=      5-min Rain = 0
KPT1 141335Z 18002KT 17/06 A2998 RMK A01 T01720063  RH  050%=      5-min Rain = 0
KPT1 141340Z 11001KT 17/07 A2998 RMK A01 T01690066  RH  052%=      5-min Rain = 0
KPT1 141345Z 11000KT 17/07 A2998 RMK A01 T01650070  RH  055%=      5-min Rain = 0
KPT1 141350Z 17003KT 17/07 A2999 RMK A01 T01670071  RH  054%=      5-min Rain = 0
KPT1 141355Z 16003KT 17/07 A2999 RMK A01 T01700070  RH  053%=      5-min Rain = 0
KPT1 141400Z 13001KT 17/07 A30 RMK A01 T01740070  RH  052%=      5-min Rain = 0
KPT1 141405Z 03002KT 17/08 A30 RMK A01 T01730075  RH  054%=      5-min Rain = 0
KPT1 141410Z 01002KT 17/07 A30 RMK A01 T01730074  RH  054%=      5-min Rain = 0
KPT1 141415Z 16001KT 18/08 A30 RMK A01 T01750075  RH  053%=      5-min Rain = 0
KPT1 141420Z 18001KT 18/08 A30 RMK A01 T01780076  RH  053%=      5-min Rain = 0
KPT1 141425Z 06001KT 18/08 A3001 RMK A01 T01800075  RH  051%=      5-min Rain = 0
KPT1 141430Z 06001KT 18/07 A3001 RMK A01 T01830074  RH  050%=      5-min Rain = 0
KPT1 141435Z 11001KT 19/07 A3001 RMK A01 T01860072  RH  049%=      5-min Rain = 0
KPT1 141440Z 17001KT 19/07 A3001 RMK A01 T01880072  RH  048%=      5-min Rain = 0
KPT1 141445Z 23003KT 19/08 A3001 RMK A01 T01920075  RH  048%=      5-min Rain = 0
KPT1 141450Z 22004KT 20/07 A3001 RMK A01 T01970073  RH  046%=      5-min Rain = 0
KPT1 141455Z 20004KT 20/07 A3001 RMK A01 T01990074  RH  045%=      5-min Rain = 0
KPT1 141500Z 19003KT 20/07 A3001 RMK A01 T02010073  RH  045%=      5-min Rain = 0
KPT1 141505Z 17004KT 20/07 A3001 RMK A01 T02010072  RH  044%=      5-min Rain = 0
KPT1 141510Z 18005KT 20/07 A3001 RMK A01 T02010072  RH  044%=      5-min Rain = 0
KPT1 141515Z 18004KT 20/07 A3001 RMK A01 T02010073  RH  045%=      5-min Rain = 0
KPT1 141520Z 19006KT 20/07 A3001 RMK A01 T02000072  RH  045%=      5-min Rain = 0
KPT1 141525Z 20006KT 20/07 A3001 RMK A01 T02010074  RH  045%=      5-min Rain = 0
KPT1 141530Z 20004KT 20/08 A3001 RMK A01 T02040076  RH  045%=      5-min Rain = 0
KPT1 141535Z 21003KT 21/08 A3001 RMK A01 T02050077  RH  045%=      5-min Rain = 0
KPT1 141540Z 22003KT 21/08 A3001 RMK A01 T02090078  RH  044%=      5-min Rain = 0
KPT1 141545Z 20005KT 21/08 A3001 RMK A01 T02090079  RH  044%=      5-min Rain = 0
KPT1 141550Z 20005KT 21/08 A3001 RMK A01 T02120080  RH  044%=      5-min Rain = 0
KPT1 141555Z 20005G10KT 21/08 A3001 RMK A01 T02140082  RH  044%=      5-min Rain = 0
KPT1 141600Z 21007KT 22/08 A30 RMK A01 T02150082  RH  044%=      5-min Rain = 0
KPT1 141605Z 22008KT 21/08 A30 RMK A01 T02140083  RH  044%=      5-min Rain = 0
KPT1 141610Z 21008KT 22/08 A30 RMK A01 T02150083  RH  044%=      5-min Rain = 0
KPT1 141615Z 22008KT 22/08 A30 RMK A01 T02160083  RH  044%=      5-min Rain = 0
KPT1 141620Z 23008KT 22/08 A30 RMK A01 T02160083  RH  044%=      5-min Rain = 0
KPT1 141625Z 22007G12KT 22/09 A30 RMK A01 T02170085  RH  044%=      5-min Rain = 0
KPT1 141630Z 22008KT 22/09 A30 RMK A01 T02180085  RH  044%=      5-min Rain = 0
KPT1 141635Z 23008KT 22/09 A30 RMK A01 T02200086  RH  044%=      5-min Rain = 0
KPT1 141640Z 23007KT 22/09 A2999 RMK A01 T02240088  RH  043%=      5-min Rain = 0
KPT1 141645Z 22009KT 22/09 A30 RMK A01 T02240088  RH  043%=      5-min Rain = 0
KPT1 141650Z 22007KT 23/09 A30 RMK A01 T02270090  RH  043%=      5-min Rain = 0
KPT1 141655Z 22007KT 23/09 A30 RMK A01 T02300091  RH  043%=      5-min Rain = 0
KPT1 141700Z 23009KT 23/09 A30 RMK A01 T02330092  RH  042%=      5-min Rain = 0
KPT1 141705Z 23007KT 24/09 A30 RMK A01 T02350093  RH  042%=      5-min Rain = 0
KPT1 141710Z 23008KT 24/09 A30 RMK A01 T02370093  RH  041%=      5-min Rain = 0
KPT1 141715Z 24010KT 24/09 A2999 RMK A01 T02370092  RH  041%=      5-min Rain = 0
KPT1 141720Z 24010KT 24/09 A2999 RMK A01 T02390092  RH  040%=      5-min Rain = 0
KPT1 141725Z 23009G14KT 24/09 A2999 RMK A01 T02410092  RH  040%=      5-min Rain = 0
KPT1 141730Z 24009KT 24/09 A2999 RMK A01 T02430093  RH  040%=      5-min Rain = 0
KPT1 141735Z 23010KT 24/09 A2999 RMK A01 T02440093  RH  039%=      5-min Rain = 0
KPT1 141740Z 23010KT 24/09 A2999 RMK A01 T02440092  RH  039%=      5-min Rain = 0
KPT1 141745Z 23010KT 24/09 A2998 RMK A01 T02430092  RH  039%=      5-min Rain = 0
KPT1 141750Z 23011KT 24/09 A2998 RMK A01 T02440092  RH  039%=      5-min Rain = 0
KPT1 141755Z 24009KT 25/09 A2998 RMK A01 T02500094  RH  038%=      5-min Rain = 0
KPT1 141800Z 23008KT 26/10 A2997 RMK A01 T02550095  RH  037%=      5-min Rain = 0
KPT1 141805Z 23008KT 26/10 A2997 RMK A01 T02600096  RH  037%=      5-min Rain = 0
KPT1 141810Z 23007G13KT 26/10 A2997 RMK A01 T02580096  RH  037%=      5-min Rain = 0
KPT1 141815Z 21009KT 27/10 A2997 RMK A01 T02650095  RH  035%=      5-min Rain = 0
KPT1 141820Z 21008KT 27/09 A2996 RMK A01 T02680094  RH  034%=      5-min Rain = 0
KPT1 141825Z 20007KT 27/10 A2996 RMK A01 T02740095  RH  033%=      5-min Rain = 0
KPT1 141830Z 24009KT 28/10 A2996 RMK A01 T02760096  RH  033%=      5-min Rain = 0
KPT1 141835Z 21009KT 27/09 A2996 RMK A01 T02720093  RH  033%=      5-min Rain = 0
KPT1 141840Z 21008G13KT 27/09 A2996 RMK A01 T02740093  RH  033%=      5-min Rain = 0
KPT1 141845Z 19007KT 28/09 A2995 RMK A01 T02810094  RH  032%=      5-min Rain = 0
KPT1 141850Z 21008KT 28/09 A2995 RMK A01 T02810090  RH  031%=      5-min Rain = 0
KPT1 141855Z 22008KT 28/09 A2994 RMK A01 T02810090  RH  031%=      5-min Rain = 0
KPT1 141900Z 20008G13KT 28/09 A2994 RMK A01 T02840093  RH  031%=      5-min Rain = 0
KPT1 141905Z 20008G13KT 28/09 A2994 RMK A01 T02830089  RH  030%=      5-min Rain = 0
KPT1 141910Z 20007G12KT 29/09 A2993 RMK A01 T02880089  RH  030%=      5-min Rain = 0
KPT1 141915Z 22008G14KT 29/09 A2993 RMK A01 T02880088  RH  029%=      5-min Rain = 0
KPT1 141920Z 22008KT 29/09 A2993 RMK A01 T02880089  RH  030%=      5-min Rain = 0
KPT1 141925Z 20008KT 29/09 A2993 RMK A01 T02890091  RH  030%=      5-min Rain = 0
KPT1 141930Z 19011G16KT 29/09 A2992 RMK A01 T02910093  RH  030%=      5-min Rain = 0
KPT1 141935Z 20011KT 29/09 A2992 RMK A01 T02890093  RH  030%=      5-min Rain = 0
KPT1 141940Z 20011KT 29/10 A2992 RMK A01 T02850096  RH  032%=      5-min Rain = 0
KPT1 141945Z 19009G14KT 29/09 A2991 RMK A01 T02910094  RH  030%=      5-min Rain = 0
KPT1 141950Z 22009G15KT 29/10 A2991 RMK A01 T02920099  RH  031%=      5-min Rain = 0
KPT1 141955Z 20011KT 29/10 A2991 RMK A01 T02930095  RH  030%=      5-min Rain = 0
KPT1 142000Z 23010G15KT 29/10 A2991 RMK A01 T02910096  RH  031%=      5-min Rain = 0
KPT1 142005Z 21011G16KT 30/10 A299 RMK A01 T02960096  RH  030%=      5-min Rain = 0
KPT1 142010Z 21009KT 29/10 A299 RMK A01 T02930097  RH  030%=      5-min Rain = 0
KPT1 142015Z 22010KT 30/10 A299 RMK A01 T02960098  RH  030%=      5-min Rain = 0
KPT1 142020Z 24011KT 29/10 A2989 RMK A01 T02930097  RH  031%=      5-min Rain = 0
KPT1 142025Z 22010G16KT 30/10 A2989 RMK A01 T02950100  RH  031%=      5-min Rain = 0
KPT1 142030Z 21009G14KT 30/11 A2989 RMK A01 T02980105  RH  031%=      5-min Rain = 0
KPT1 142035Z 21011G18KT 30/10 A2989 RMK A01 T02950104  RH  031%=      5-min Rain = 0
KPT1 142040Z 19010KT 29/10 A2989 RMK A01 T02890103  RH  032%=      5-min Rain = 0
KPT1 142045Z 20013G18KT 29/10 A2989 RMK A01 T02850104  RH  034%=      5-min Rain = 0
KPT1 142050Z 21011G17KT 29/11 A2989 RMK A01 T02890107  RH  033%=      5-min Rain = 0
KPT1 142055Z 21010G15KT 30/11 A2989 RMK A01 T03000109  RH  032%=      5-min Rain = 0
KPT1 142100Z 21010G15KT 30/11 A2989 RMK A01 T02960110  RH  033%=      5-min Rain = 0
KPT1 142105Z 22009G17KT 29/11 A2989 RMK A01 T02940112  RH  034%=      5-min Rain = 0
KPT1 142110Z 23010G15KT 30/11 A2989 RMK A01 T02960108  RH  032%=      5-min Rain = 0
KPT1 142115Z 23010KT 30/11 A2989 RMK A01 T02950106  RH  032%=      5-min Rain = 0
KPT1 142120Z 23012KT 29/11 A2989 RMK A01 T02930109  RH  033%=      5-min Rain = 0
KPT1 142125Z 24007KT 29/11 A2989 RMK A01 T02920110  RH  034%=      5-min Rain = 0
KPT1 142130Z 23009G15KT 30/11 A2989 RMK A01 T02970113  RH  033%=      5-min Rain = 0
KPT1 142135Z 21010G15KT 30/12 A2989 RMK A01 T02970115  RH  034%=      5-min Rain = 0
KPT1 142140Z 20009G14KT 30/12 A2989 RMK A01 T02970115  RH  034%=      5-min Rain = 0
KPT1 142145Z 20011KT 30/12 A2989 RMK A01 T02960116  RH  034%=      5-min Rain = 0
KPT1 142150Z 20011G16KT 29/12 A2989 RMK A01 T02920115  RH  035%=      5-min Rain = 0
KPT1 142155Z 21012G19KT 29/12 A2989 RMK A01 T02930115  RH  035%=      5-min Rain = 0
KPT1 142200Z 22011G17KT 29/11 A2988 RMK A01 T02890114  RH  035%=      5-min Rain = 0
KPT1 142205Z 22010KT 29/11 A2988 RMK A01 T02900114  RH  035%=      5-min Rain = 0
KPT1 142210Z 22009G15KT 29/11 A2988 RMK A01 T02930114  RH  034%=      5-min Rain = 0
KPT1 142215Z 22010G16KT 29/12 A2988 RMK A01 T02910116  RH  035%=      5-min Rain = 0
KPT1 142220Z 22011G17KT 29/12 A2988 RMK A01 T02900116  RH  035%=      5-min Rain = 0
KPT1 142225Z 21009G14KT 29/12 A2988 RMK A01 T02850116  RH  036%=      5-min Rain = 0
KPT1 142230Z 20009KT 28/12 A2988 RMK A01 T02830117  RH  037%=      5-min Rain = 0
KPT1 142235Z 19008KT 29/12 A2988 RMK A01 T02860117  RH  036%=      5-min Rain = 0
KPT1 142240Z 20010G15KT 29/12 A2988 RMK A01 T02900117  RH  036%=      5-min Rain = 0
KPT1 142245Z 21009KT 28/12 A2988 RMK A01 T02830118  RH  037%=      5-min Rain = 0
KPT1 142250Z 19009KT 28/12 A2988 RMK A01 T02820117  RH  037%=      5-min Rain = 0
KPT1 142255Z 19010G15KT 28/12 A2988 RMK A01 T02810117  RH  038%=      5-min Rain = 0
KPT1 142300Z 19009KT 28/12 A2988 RMK A01 T02820116  RH  037%=      5-min Rain = 0
KPT1 142305Z 19010KT 28/11 A2988 RMK A01 T02840114  RH  036%=      5-min Rain = 0
KPT1 142310Z 19011G16KT 29/11 A2988 RMK A01 T02890112  RH  035%=      5-min Rain = 0
KPT1 142315Z 19011G16KT 29/11 A2988 RMK A01 T02860108  RH  034%=      5-min Rain = 0
KPT1 142320Z 20010G16KT 29/11 A2988 RMK A01 T02850108  RH  034%=      5-min Rain = 0
KPT1 142325Z 20013KT 28/11 A2988 RMK A01 T02810107  RH  035%=      5-min Rain = 0
KPT1 142330Z 20012G18KT 28/11 A2988 RMK A01 T02790106  RH  035%=      5-min Rain = 0
KPT1 142335Z 20010G16KT 28/11 A2988 RMK A01 T02770108  RH  036%=      5-min Rain = 0
KPT1 142340Z 20010G15KT 28/11 A2988 RMK A01 T02750109  RH  037%=      5-min Rain = 0
KPT1 142345Z 19010KT 27/11 A2988 RMK A01 T02730110  RH  037%=      5-min Rain = 0
KPT1 142350Z 20010G15KT 27/11 A2988 RMK A01 T02720110  RH  038%=      5-min Rain = 0
KPT1 142355Z 19009G14KT 27/11 A2988 RMK A01 T02700112  RH  039%=      5-min Rain = 0
KPT1 150000Z 18010KT 27/11 A2988 RMK A01 T02670113  RH  040%=      5-min Rain = 0
KPT1 150005Z 18008G13KT 26/11 A2988 RMK A01 T02640114  RH  041%=      5-min Rain = 0
KPT1 150010Z 18009KT 26/12 A2988 RMK A01 T02610115  RH  042%=      5-min Rain = 0
KPT1 150015Z 17011G17KT 26/12 A2988 RMK A01 T02590116  RH  042%=      5-min Rain = 0
KPT1 150020Z 18009KT 26/12 A2989 RMK A01 T02560117  RH  043%=      5-min Rain = 0
KPT1 150025Z 18009KT 25/12 A2989 RMK A01 T02540118  RH  044%=      5-min Rain = 0
KPT1 150030Z 18010G15KT 25/12 A2989 RMK A01 T02520119  RH  045%=      5-min Rain = 0
KPT1 150035Z 19010G15KT 25/12 A2989 RMK A01 T02520119  RH  045%=      5-min Rain = 0
KPT1 150040Z 19009G15KT 25/12 A2989 RMK A01 T02510119  RH  045%=      5-min Rain = 0
KPT1 150045Z 19009G14KT 25/12 A2989 RMK A01 T02490120  RH  046%=      5-min Rain = 0
KPT1 150050Z 19010KT 25/12 A299 RMK A01 T02480121  RH  047%=      5-min Rain = 0
KPT1 150055Z 18008KT 25/12 A299 RMK A01 T02460122  RH  048%=      5-min Rain = 0
KPT1 150100Z 18008KT 24/12 A299 RMK A01 T02440122  RH  048%=      5-min Rain = 0
KPT1 150105Z 18007KT 24/12 A299 RMK A01 T02410123  RH  049%=      5-min Rain = 0
KPT1 150110Z 18007KT 24/12 A299 RMK A01 T02400124  RH  050%=      5-min Rain = 0
KPT1 150115Z 18006KT 24/12 A299 RMK A01 T02380124  RH  051%=      5-min Rain = 0
KPT1 150120Z 18006KT 24/13 A2991 RMK A01 T02360125  RH  052%=      5-min Rain = 0
KPT1 150125Z 18006KT 23/13 A2991 RMK A01 T02340126  RH  053%=      5-min Rain = 0
KPT1 150130Z 18006KT 23/13 A2991 RMK A01 T02320126  RH  053%=      5-min Rain = 0
KPT1 150135Z 18006KT 23/13 A2991 RMK A01 T02310127  RH  054%=      5-min Rain = 0
KPT1 150140Z 18006KT 23/13 A2991 RMK A01 T02290127  RH  055%=      5-min Rain = 0
KPT1 150145Z 18006KT 23/13 A2991 RMK A01 T02280128  RH  055%=      5-min Rain = 0
KPT1 150150Z 17007KT 23/13 A2991 RMK A01 T02280128  RH  055%=      5-min Rain = 0
KPT1 150155Z 18007KT 23/13 A2991 RMK A01 T02270128  RH  056%=      5-min Rain = 0
KPT1 150200Z 19005KT 23/13 A2991 RMK A01 T02260129  RH  056%=      5-min Rain = 0
KPT1 150205Z 19006KT 23/13 A2991 RMK A01 T02250129  RH  057%=      5-min Rain = 0
KPT1 150210Z 18007KT 23/13 A2991 RMK A01 T02250129  RH  057%=      5-min Rain = 0
KPT1 150215Z 18007KT 23/13 A2991 RMK A01 T02250129  RH  057%=      5-min Rain = 0
KPT1 150220Z 18007KT 22/13 A2991 RMK A01 T02240129  RH  057%=      5-min Rain = 0
KPT1 150225Z 18008KT 22/13 A2992 RMK A01 T02220129  RH  058%=      5-min Rain = 0
KPT1 150230Z 18008KT 22/13 A2992 RMK A01 T02220130  RH  058%=      5-min Rain = 0
KPT1 150235Z 18008KT 22/13 A2992 RMK A01 T02220130  RH  058%=      5-min Rain = 0
KPT1 150240Z 19008KT 22/13 A2992 RMK A01 T02220132  RH  059%=      5-min Rain = 0
KPT1 150245Z 19009G16KT 22/13 A2992 RMK A01 T02220133  RH  059%=      5-min Rain = 0
KPT1 150250Z 19010KT 22/13 A2992 RMK A01 T02220133  RH  059%=      5-min Rain = 0
KPT1 150255Z 19009KT 22/13 A2992 RMK A01 T02220133  RH  059%=      5-min Rain = 0
KPT1 150300Z 19009KT 22/13 A2992 RMK A01 T02220134  RH  060%=      5-min Rain = 0
KPT1 150305Z 19008KT 22/13 A2992 RMK A01 T02210134  RH  060%=      5-min Rain = 0
KPT1 150310Z 18008KT 22/13 A2993 RMK A01 T02200134  RH  061%=      5-min Rain = 0
KPT1 150315Z 19008KT 22/13 A2993 RMK A01 T02190134  RH  061%=      5-min Rain = 0
KPT1 150320Z 19007KT 22/13 A2993 RMK A01 T02170134  RH  062%=      5-min Rain = 0
KPT1 150325Z 18006KT 21/13 A2993 RMK A01 T02140134  RH  063%=      5-min Rain = 0
KPT1 150330Z 18006KT 21/13 A2993 RMK A01 T02110134  RH  064%=      5-min Rain = 0
KPT1 150335Z 18006KT 21/13 A2993 RMK A01 T02100134  RH  065%=      5-min Rain = 0
KPT1 150340Z 19006KT 21/14 A2993 RMK A01 T02090135  RH  065%=      5-min Rain = 0
KPT1 150345Z 19007KT 21/14 A2993 RMK A01 T02110136  RH  065%=      5-min Rain = 0
KPT1 150350Z 20007KT 22/14 A2993 RMK A01 T02150137  RH  064%=      5-min Rain = 0
KPT1 150355Z 20007KT 22/14 A2993 RMK A01 T02150137  RH  064%=      5-min Rain = 0
KPT1 150400Z 19009KT 22/14 A2993 RMK A01 T02170137  RH  063%=      5-min Rain = 0
KPT1 150405Z 20009KT 22/14 A2993 RMK A01 T02180137  RH  063%=      5-min Rain = 0
KPT1 150410Z 20008KT 22/14 A2993 RMK A01 T02160137  RH  063%=      5-min Rain = 0
KPT1 150415Z 20007KT 22/14 A2993 RMK A01 T02160138  RH  064%=      5-min Rain = 0
KPT1 150420Z 19007G12KT 22/14 A2993 RMK A01 T02160138  RH  064%=      5-min Rain = 0
KPT1 150425Z 19008KT 22/14 A2993 RMK A01 T02160138  RH  064%=      5-min Rain = 0
KPT1 150430Z 19008G13KT 22/14 A2993 RMK A01 T02160138  RH  064%=      5-min Rain = 0
KPT1 150435Z 19008KT 21/14 A2993 RMK A01 T02140138  RH  065%=      5-min Rain = 0
KPT1 150440Z 19008KT 21/14 A2993 RMK A01 T02130138  RH  065%=      5-min Rain = 0
KPT1 150445Z 19008KT 21/14 A2993 RMK A01 T02120138  RH  065%=      5-min Rain = 0
KPT1 150450Z 19007KT 21/14 A2993 RMK A01 T02110138  RH  066%=      5-min Rain = 0
KPT1 150455Z 19006KT 21/14 A2993 RMK A01 T02080138  RH  067%=      5-min Rain = 0

Page generated in 0.022 seconds.